createdAt,value
2023-03-14T00:01:11.112Z,3.03
2023-03-14T00:03:37.575Z,3.90
2023-03-14T00:06:05.854Z,2.97
2023-03-14T00:08:32.395Z,4.30
2023-03-14T00:10:59.045Z,3.50
2023-03-14T00:13:25.619Z,2.97
2023-03-14T00:15:52.071Z,3.38
2023-03-14T00:18:20.779Z,3.80
2023-03-14T00:20:47.222Z,2.70
2023-03-14T00:23:13.592Z,3.47
2023-03-14T00:25:39.969Z,3.05
2023-03-14T00:28:06.381Z,4.70
2023-03-14T00:30:32.844Z,4.50
2023-03-14T00:32:59.216Z,3.38
2023-03-14T00:35:25.668Z,3.15
2023-03-14T00:37:52.066Z,3.35
2023-03-14T00:40:18.508Z,3.13
2023-03-14T00:42:44.953Z,3.40
2023-03-14T00:45:11.595Z,3.15
2023-03-14T00:47:38.258Z,3.28
2023-03-14T00:50:04.993Z,3.20
2023-03-14T00:52:31.526Z,3.28
2023-03-14T00:54:57.909Z,3.90
2023-03-14T00:57:24.420Z,2.75
2023-03-14T00:59:52.386Z,2.85
2023-03-14T01:02:18.800Z,3.20
2023-03-14T01:04:45.274Z,3.25
2023-03-14T01:07:11.638Z,2.97
2023-03-14T01:09:38.015Z,3.28
2023-03-14T01:12:04.706Z,3.38
2023-03-14T01:14:31.221Z,3.13
2023-03-14T01:17:01.754Z,2.88
2023-03-14T01:19:29.365Z,3.35
2023-03-14T01:21:55.869Z,3.28
2023-03-14T01:24:22.336Z,3.22
2023-03-14T01:26:48.760Z,3.30
2023-03-14T01:29:15.183Z,3.72
2023-03-14T01:31:41.725Z,3.25
2023-03-14T01:34:08.173Z,3.50
2023-03-14T01:36:34.606Z,2.65
2023-03-14T01:39:00.965Z,3.20
2023-03-14T01:41:27.734Z,3.63
2023-03-14T01:43:54.421Z,3.38
2023-03-14T01:46:31.919Z,3.95
2023-03-14T01:49:13.530Z,3.35
2023-03-14T01:52:36.126Z,4.43
2023-03-14T01:55:14.555Z,3.33
2023-03-14T01:57:46.845Z,3.72
2023-03-14T02:00:16.476Z,4.72
2023-03-14T02:02:46.567Z,3.78
2023-03-14T02:05:16.944Z,3.28
2023-03-14T02:07:51.030Z,3.78
2023-03-14T02:10:20.613Z,3.75
2023-03-14T02:12:48.831Z,3.45
2023-03-14T02:15:15.559Z,3.13
2023-03-14T02:17:44.839Z,3.92
2023-03-14T02:20:29.796Z,3.97
2023-03-14T02:25:36.326Z,3.47
2023-03-14T02:28:03.074Z,3.60
2023-03-14T02:30:31.815Z,3.92
2023-03-14T02:33:03.303Z,4.20
2023-03-14T02:35:36.215Z,3.42
2023-03-14T02:38:19.042Z,4.90
2023-03-14T02:40:46.118Z,4.53
2023-03-14T02:43:12.549Z,3.85
2023-03-14T02:45:43.340Z,4.72
2023-03-14T02:48:20.416Z,3.90
2023-03-14T02:50:50.265Z,4.80
2023-03-14T02:53:22.507Z,3.10
2023-03-14T02:55:49.773Z,4.43
2023-03-14T02:58:17.132Z,3.83
2023-03-14T03:00:43.866Z,3.97
2023-03-14T03:03:10.653Z,3.55
2023-03-14T03:05:37.123Z,3.30
2023-03-14T03:08:04.485Z,4.50
2023-03-14T03:10:32.320Z,4.03
2023-03-14T03:12:58.705Z,3.63
2023-03-14T03:15:25.259Z,4.07
2023-03-14T03:17:51.688Z,3.55
2023-03-14T03:20:18.211Z,3.78
2023-03-14T03:22:44.662Z,4.07
2023-03-14T03:25:11.426Z,3.17
2023-03-14T03:27:39.054Z,4.30
2023-03-14T03:30:06.914Z,2.90
2023-03-14T03:32:33.588Z,3.95
2023-03-14T03:35:00.155Z,3.30
2023-03-14T03:37:26.599Z,3.53
2023-03-14T03:39:53.163Z,2.45
2023-03-14T03:42:19.970Z,2.70
2023-03-14T03:44:46.495Z,3.08
2023-03-14T03:47:12.922Z,2.85
2023-03-14T03:49:39.337Z,3.67
2023-03-14T03:52:05.835Z,3.17
2023-03-14T03:54:32.361Z,2.72
2023-03-14T03:56:58.803Z,2.15
2023-03-14T03:59:25.346Z,2.83
2023-03-14T04:01:51.819Z,2.25
2023-03-14T04:04:18.332Z,2.78
2023-03-14T04:06:45.185Z,3.00
2023-03-14T04:09:12.516Z,2.53
2023-03-14T04:11:39.119Z,3.47
2023-03-14T04:14:06.312Z,2.85
2023-03-14T04:16:32.862Z,2.63
2023-03-14T04:18:59.535Z,3.53
2023-03-14T04:21:25.965Z,3.17
2023-03-14T04:23:52.641Z,2.60
2023-03-14T04:26:19.340Z,2.88
2023-03-14T04:28:45.793Z,2.90
2023-03-14T04:31:14.594Z,3.20
2023-03-14T04:33:41.910Z,3.42
2023-03-14T04:36:10.142Z,3.08
2023-03-14T04:38:36.602Z,3.20
2023-03-14T04:41:03.586Z,3.28
2023-03-14T04:43:30.166Z,4.18
2023-03-14T04:45:58.543Z,3.38
2023-03-14T04:48:26.341Z,3.08
2023-03-14T04:50:53.102Z,3.05
2023-03-14T04:53:19.928Z,4.25
2023-03-14T04:55:51.629Z,3.97
2023-03-14T04:58:18.320Z,2.10
2023-03-14T05:00:45.645Z,2.55
2023-03-14T05:03:12.059Z,1.63
2023-03-14T05:05:38.728Z,1.70
2023-03-14T05:08:05.558Z,1.35
2023-03-14T05:10:31.991Z,1.35
2023-03-14T05:12:58.361Z,1.15
2023-03-14T05:15:25.074Z,1.88
2023-03-14T05:17:51.543Z,1.23
2023-03-14T05:20:18.045Z,1.75
2023-03-14T05:22:44.496Z,1.15
2023-03-14T05:25:10.925Z,1.35
2023-03-14T05:27:37.362Z,0.90
2023-03-14T05:30:05.879Z,1.17
2023-03-14T05:32:32.970Z,0.98
2023-03-14T05:35:00.394Z,0.88
2023-03-14T05:37:27.435Z,1.40
2023-03-14T05:39:53.811Z,1.15
2023-03-14T05:42:20.268Z,1.13
2023-03-14T05:44:46.700Z,1.25
2023-03-14T05:47:13.068Z,1.17
2023-03-14T05:49:39.643Z,1.13
2023-03-14T05:52:06.118Z,1.20
2023-03-14T05:54:32.596Z,1.30
2023-03-14T05:56:58.993Z,1.13
2023-03-14T05:59:25.546Z,1.00
2023-03-14T06:01:52.042Z,1.20
2023-03-14T06:04:18.513Z,1.00
2023-03-14T06:06:44.975Z,1.30
2023-03-14T06:09:11.353Z,1.58
2023-03-14T06:11:37.803Z,1.20
2023-03-14T06:14:04.359Z,1.20
2023-03-14T06:16:30.899Z,1.75
2023-03-14T06:18:57.420Z,1.75
2023-03-14T06:21:24.221Z,2.63
2023-03-14T06:23:50.668Z,1.67
2023-03-14T06:26:17.095Z,1.35
2023-03-14T06:28:43.687Z,1.50
2023-03-14T06:31:10.159Z,2.40
2023-03-14T06:33:36.548Z,1.52
2023-03-14T06:36:03.043Z,1.10
2023-03-14T06:38:29.555Z,0.60
2023-03-14T06:40:55.972Z,0.70
2023-03-14T06:43:22.503Z,0.93
2023-03-14T06:45:49.011Z,1.08
2023-03-14T06:48:15.400Z,1.25
2023-03-14T06:50:42.941Z,1.40
2023-03-14T06:53:09.579Z,0.90
2023-03-14T06:55:36.024Z,0.90
2023-03-14T06:58:02.442Z,1.10
2023-03-14T07:00:29.198Z,0.73
2023-03-14T07:02:55.763Z,1.27
2023-03-14T07:05:22.275Z,1.40
2023-03-14T07:07:48.711Z,0.77
2023-03-14T07:10:15.229Z,1.35
2023-03-14T07:12:41.694Z,1.05
2023-03-14T07:15:18.102Z,2.15
2023-03-14T07:17:44.986Z,0.90
2023-03-14T07:20:11.739Z,1.40
2023-03-14T07:22:38.200Z,1.15
2023-03-14T07:25:04.963Z,1.63
2023-03-14T07:27:31.500Z,1.00
2023-03-14T07:29:58.101Z,1.30
2023-03-14T07:32:24.638Z,0.85
2023-03-14T07:34:51.098Z,0.98
2023-03-14T07:37:17.489Z,0.90
2023-03-14T07:39:43.910Z,1.05
2023-03-14T07:42:11.938Z,1.38
2023-03-14T07:44:38.350Z,3.58
2023-03-14T07:47:04.820Z,2.00
2023-03-14T07:49:31.292Z,1.40
2023-03-14T07:51:57.776Z,1.67
2023-03-14T07:54:25.738Z,2.88
2023-03-14T07:56:55.527Z,1.35
2023-03-14T07:59:22.053Z,1.90
2023-03-14T08:01:48.546Z,1.75
2023-03-14T08:04:15.088Z,1.65
2023-03-14T08:06:41.683Z,1.70
2023-03-14T08:09:08.432Z,1.40
2023-03-14T08:11:34.887Z,2.75
2023-03-14T08:14:01.398Z,2.00
2023-03-14T08:16:27.867Z,3.65
2023-03-14T08:18:54.360Z,2.67
2023-03-14T08:21:20.807Z,2.78
2023-03-14T08:23:47.280Z,3.15
2023-03-14T08:26:13.666Z,2.10
2023-03-14T08:28:40.059Z,3.50
2023-03-14T08:31:06.831Z,2.70
2023-03-14T08:33:33.347Z,2.70
2023-03-14T08:36:01.746Z,2.67
2023-03-14T08:38:28.909Z,2.15
2023-03-14T08:41:00.174Z,2.30
2023-03-14T08:43:27.756Z,3.30
2023-03-14T08:45:54.306Z,2.60
2023-03-14T08:48:20.798Z,2.35
2023-03-14T08:50:47.396Z,2.13
2023-03-14T08:53:13.787Z,1.92
2023-03-14T08:55:40.291Z,2.63
2023-03-14T08:58:06.910Z,2.28
2023-03-14T09:00:33.406Z,2.13
2023-03-14T09:02:59.853Z,2.47
2023-03-14T09:05:26.314Z,2.38
2023-03-14T09:07:52.715Z,2.38
2023-03-14T09:10:19.349Z,3.08
2023-03-14T09:12:45.740Z,2.15
2023-03-14T09:15:12.380Z,2.88
2023-03-14T09:17:38.765Z,2.28
2023-03-14T09:20:09.850Z,2.55
2023-03-14T09:22:36.638Z,2.22
2023-03-14T09:25:07.041Z,2.83
2023-03-14T09:27:33.637Z,2.30
2023-03-14T09:30:00.033Z,2.13
2023-03-14T09:32:26.525Z,2.78
2023-03-14T09:34:53.012Z,2.88
2023-03-14T09:37:21.010Z,1.95
2023-03-14T09:39:47.580Z,2.00
2023-03-14T09:42:19.809Z,2.53
2023-03-14T09:44:57.596Z,1.58
2023-03-14T09:47:25.876Z,2.20
2023-03-14T09:49:52.506Z,2.60
2023-03-14T09:52:24.619Z,2.00
2023-03-14T09:55:00.494Z,2.30
2023-03-14T09:57:28.048Z,2.35
2023-03-14T09:59:59.682Z,2.00
2023-03-14T10:02:36.704Z,2.28
2023-03-14T10:05:09.369Z,1.40
2023-03-14T10:07:35.843Z,1.80
2023-03-14T10:10:02.266Z,1.48
2023-03-14T10:12:34.755Z,2.03
2023-03-14T10:15:09.246Z,2.33
2023-03-14T10:17:41.532Z,2.58
2023-03-14T10:20:26.398Z,1.17
2023-03-14T10:22:52.850Z,1.38
2023-03-14T10:26:08.173Z,1.58
2023-03-14T10:28:48.671Z,1.27
2023-03-14T10:31:16.130Z,1.60
2023-03-14T10:33:43.084Z,1.60
2023-03-14T10:36:18.609Z,1.15
2023-03-14T10:38:45.151Z,1.42
2023-03-14T10:41:24.587Z,1.13
2023-03-14T10:43:54.865Z,1.15
2023-03-14T10:46:21.627Z,1.85
2023-03-14T10:48:49.555Z,1.42
2023-03-14T10:51:18.716Z,1.42
2023-03-14T10:53:58.620Z,1.17
2023-03-14T10:56:27.027Z,1.23
2023-03-14T10:58:57.770Z,1.45
2023-03-14T11:01:50.661Z,1.42
2023-03-14T11:04:38.614Z,2.03
2023-03-14T11:07:24.947Z,3.10
2023-03-14T11:10:03.361Z,1.20
2023-03-14T11:12:42.978Z,1.52
2023-03-14T11:15:31.190Z,0.68
2023-03-14T11:18:36.242Z,0.75
2023-03-14T11:21:05.568Z,1.13
2023-03-14T11:24:09.532Z,0.82
2023-03-14T11:26:50.095Z,1.00
2023-03-14T11:29:29.002Z,1.00
2023-03-14T11:32:02.731Z,0.90
2023-03-14T11:34:52.328Z,1.05
2023-03-14T11:37:35.009Z,0.88
2023-03-14T11:40:14.065Z,1.02
2023-03-14T11:42:44.310Z,0.90
2023-03-14T11:45:22.561Z,1.10
2023-03-14T11:48:11.622Z,0.75
2023-03-14T11:50:41.723Z,1.02
2023-03-14T11:53:18.858Z,1.33
2023-03-14T11:55:45.974Z,1.75
2023-03-14T11:58:26.915Z,0.93
2023-03-14T12:00:56.078Z,1.08
2023-03-14T12:03:33.851Z,1.10
2023-03-14T12:06:31.601Z,0.85
2023-03-14T12:09:04.429Z,0.90
2023-03-14T12:11:39.577Z,1.35
2023-03-14T12:14:23.160Z,1.20
2023-03-14T12:16:50.639Z,0.90
2023-03-14T12:19:20.171Z,1.00
2023-03-14T12:21:54.235Z,1.17
2023-03-14T12:24:26.067Z,1.10
2023-03-14T12:26:58.132Z,1.20
2023-03-14T12:29:25.482Z,1.40
2023-03-14T12:32:22.932Z,1.67
2023-03-14T12:34:50.504Z,1.02
2023-03-14T12:37:45.286Z,1.30
2023-03-14T12:40:22.061Z,1.17
2023-03-14T12:43:12.395Z,1.20
2023-03-14T12:45:38.966Z,1.02
2023-03-14T12:48:20.852Z,1.02
2023-03-14T12:50:55.853Z,1.00
2023-03-14T12:53:50.219Z,1.20
2023-03-14T12:56:24.859Z,1.15
2023-03-14T12:59:28.307Z,1.10
2023-03-14T13:01:57.954Z,1.10
2023-03-14T13:04:40.113Z,1.33
2023-03-14T13:07:12.918Z,0.90
2023-03-14T13:09:56.273Z,1.08
2023-03-14T13:12:31.144Z,0.90
2023-03-14T13:15:00.313Z,1.50
2023-03-14T13:17:36.481Z,1.00
2023-03-14T13:20:13.538Z,0.90
2023-03-14T13:22:40.136Z,0.70
2023-03-14T13:25:11.279Z,1.10
2023-03-14T13:27:38.704Z,1.10
2023-03-14T13:30:16.796Z,1.63
2023-03-14T13:32:45.970Z,0.98
2023-03-14T13:35:20.237Z,1.00
2023-03-14T13:37:47.117Z,0.80
2023-03-14T13:40:35.329Z,1.45
2023-03-14T13:43:14.342Z,2.45
2023-03-14T13:45:51.290Z,0.80
2023-03-14T13:48:18.855Z,0.90
2023-03-14T13:50:54.725Z,1.10
2023-03-14T13:53:21.639Z,1.13
2023-03-14T13:55:48.497Z,0.75
2023-03-14T13:58:22.800Z,1.10
2023-03-14T14:00:58.174Z,0.90
2023-03-14T14:03:24.869Z,1.23
2023-03-14T14:05:51.296Z,1.10
2023-03-14T14:08:17.729Z,0.90
2023-03-14T14:10:48.383Z,1.40
2023-03-14T14:13:20.058Z,0.57
2023-03-14T14:15:50.278Z,1.17
2023-03-14T14:18:19.422Z,1.00
2023-03-14T14:20:48.258Z,0.90
2023-03-14T14:23:26.190Z,0.98
2023-03-14T14:25:53.980Z,1.05
2023-03-14T14:28:25.699Z,0.95
2023-03-14T14:31:23.976Z,0.95
2023-03-14T14:34:02.770Z,1.23
2023-03-14T14:36:40.380Z,1.00
2023-03-14T14:39:21.975Z,0.98
2023-03-14T14:41:51.289Z,0.95
2023-03-14T14:44:22.557Z,1.10
2023-03-14T14:46:50.474Z,0.93
2023-03-14T14:49:20.247Z,0.70
2023-03-14T14:51:51.699Z,1.40
2023-03-14T14:54:20.706Z,0.90
2023-03-14T14:56:52.544Z,0.85
2023-03-14T14:59:30.167Z,0.93
2023-03-14T15:02:01.503Z,0.70
2023-03-14T15:04:31.944Z,0.80
2023-03-14T15:06:58.761Z,1.27
2023-03-14T15:09:25.212Z,1.05
2023-03-14T15:11:51.862Z,1.30
2023-03-14T15:14:18.262Z,0.98
2023-03-14T15:16:44.902Z,1.33
2023-03-14T15:19:25.689Z,1.30
2023-03-14T15:21:55.374Z,1.20
2023-03-14T15:24:22.842Z,0.73
2023-03-14T15:26:49.234Z,1.65
2023-03-14T15:29:15.668Z,1.10
2023-03-14T15:31:44.178Z,0.90
2023-03-14T15:34:11.305Z,0.90
2023-03-14T15:36:38.591Z,1.10
2023-03-14T15:39:07.404Z,1.10
2023-03-14T15:41:34.823Z,1.05
2023-03-14T15:44:01.907Z,0.90
2023-03-14T15:46:30.552Z,0.88
2023-03-14T15:48:58.200Z,0.90
2023-03-14T15:51:24.627Z,1.00
2023-03-14T15:53:52.607Z,1.00
2023-03-14T15:56:20.778Z,1.27
2023-03-14T15:58:47.560Z,1.13
2023-03-14T16:01:16.945Z,1.35
2023-03-14T16:03:47.238Z,0.82
2023-03-14T16:06:14.468Z,1.10
2023-03-14T16:08:41.414Z,0.80
2023-03-14T16:11:07.885Z,0.90
2023-03-14T16:13:34.340Z,1.08
2023-03-14T16:16:02.929Z,0.98
2023-03-14T16:18:31.612Z,1.02
2023-03-14T16:21:11.280Z,0.90
2023-03-14T16:23:37.895Z,1.77
2023-03-14T16:26:06.373Z,1.20
2023-03-14T16:28:32.820Z,0.93
2023-03-14T16:31:04.113Z,1.65
2023-03-14T16:33:31.613Z,1.25
2023-03-14T16:36:01.227Z,1.40
2023-03-14T16:38:31.598Z,1.10
2023-03-14T16:41:02.893Z,2.05
2023-03-14T16:43:29.983Z,0.88
2023-03-14T16:46:00.923Z,1.08
2023-03-14T16:48:28.539Z,1.30
2023-03-14T16:50:55.432Z,0.95
2023-03-14T16:53:22.771Z,1.30
2023-03-14T16:55:50.743Z,1.55
2023-03-14T16:58:17.387Z,1.00
2023-03-14T17:00:47.831Z,0.88
2023-03-14T17:03:15.643Z,1.50
2023-03-14T17:05:47.831Z,0.95
2023-03-14T17:08:15.623Z,1.10
2023-03-14T17:10:42.232Z,1.35
2023-03-14T17:13:09.052Z,1.40
2023-03-14T17:15:35.514Z,1.02
2023-03-14T17:18:03.139Z,1.17
2023-03-14T17:20:30.517Z,1.77
2023-03-14T17:22:57.543Z,1.20
2023-03-14T17:25:24.198Z,1.30
2023-03-14T17:27:50.632Z,0.85
2023-03-14T17:30:17.336Z,1.35
2023-03-14T17:32:43.841Z,1.00
2023-03-14T17:35:10.325Z,1.23
2023-03-14T17:37:36.898Z,1.42
2023-03-14T17:40:04.375Z,1.10
2023-03-14T17:42:31.421Z,1.35
2023-03-14T17:44:58.632Z,1.27
2023-03-14T17:47:25.114Z,1.00
2023-03-14T17:49:51.574Z,1.27
2023-03-14T17:52:18.041Z,1.13
2023-03-14T17:54:44.607Z,3.13
2023-03-14T17:57:11.156Z,1.30
2023-03-14T17:59:37.699Z,1.30
2023-03-14T18:02:04.770Z,1.10
2023-03-14T18:04:31.385Z,1.00
2023-03-14T18:06:57.874Z,1.35
2023-03-14T18:09:24.365Z,1.45
2023-03-14T18:11:58.742Z,1.38
2023-03-14T18:14:28.639Z,1.60
2023-03-14T18:16:55.284Z,1.70
2023-03-14T18:19:21.864Z,1.98
2023-03-14T18:21:48.459Z,1.40
2023-03-14T18:24:14.986Z,1.30
2023-03-14T18:26:41.469Z,1.58
2023-03-14T18:29:07.893Z,1.92
2023-03-14T18:31:34.978Z,1.75
2023-03-14T18:34:01.684Z,1.20
2023-03-14T18:36:28.407Z,1.40
2023-03-14T18:38:56.771Z,1.60
2023-03-14T18:41:25.089Z,1.40
2023-03-14T18:43:53.511Z,2.00
2023-03-14T18:46:21.967Z,1.02
2023-03-14T18:48:56.111Z,1.10
2023-03-14T18:51:28.478Z,1.13
2023-03-14T18:54:08.350Z,1.38
2023-03-14T18:56:36.164Z,1.10
2023-03-14T18:59:02.711Z,1.08
2023-03-14T19:01:31.291Z,0.90
2023-03-14T19:03:59.305Z,1.17
2023-03-14T19:06:27.831Z,1.70
2023-03-14T19:08:54.239Z,1.40
2023-03-14T19:11:20.694Z,0.90
2023-03-14T19:13:47.151Z,1.77
2023-03-14T19:16:15.768Z,1.10
2023-03-14T19:18:42.816Z,1.30
2023-03-14T19:21:12.303Z,1.15
2023-03-14T19:23:41.127Z,1.20
2023-03-14T19:26:07.821Z,0.90
2023-03-14T19:28:34.370Z,0.85
2023-03-14T19:31:02.828Z,0.90
2023-03-14T19:33:29.859Z,1.35
2023-03-14T19:35:56.396Z,0.82
2023-03-14T19:38:22.997Z,1.20
2023-03-14T19:40:50.489Z,1.35
2023-03-14T19:43:17.273Z,1.30
2023-03-14T19:45:44.080Z,1.77
2023-03-14T19:48:11.431Z,1.30
2023-03-14T19:50:39.181Z,0.70
2023-03-14T19:53:08.065Z,1.33
2023-03-14T19:55:35.194Z,0.95
2023-03-14T19:58:01.922Z,1.30
2023-03-14T20:00:28.516Z,0.93
2023-03-14T20:02:55.136Z,2.75
2023-03-14T20:05:23.601Z,1.00
2023-03-14T20:07:50.188Z,1.17
2023-03-14T20:10:19.046Z,1.00
2023-03-14T20:12:46.350Z,1.10
2023-03-14T20:15:18.279Z,1.02
2023-03-14T20:17:46.172Z,1.65
2023-03-14T20:20:12.842Z,1.38
2023-03-14T20:22:39.613Z,1.48
2023-03-14T20:25:06.966Z,1.67
2023-03-14T20:27:33.636Z,1.25
2023-03-14T20:30:02.198Z,1.30
2023-03-14T20:32:29.629Z,1.60
2023-03-14T20:34:57.235Z,1.45
2023-03-14T20:37:23.673Z,2.30
2023-03-14T20:39:50.400Z,1.90
2023-03-14T20:42:18.085Z,1.15
2023-03-14T20:44:45.022Z,1.08
2023-03-14T20:47:12.447Z,1.15
2023-03-14T20:49:39.042Z,0.80
2023-03-14T20:52:05.951Z,1.13
2023-03-14T20:54:32.795Z,1.38
2023-03-14T20:56:59.276Z,1.35
2023-03-14T20:59:25.715Z,1.42
2023-03-14T21:01:55.084Z,1.35
2023-03-14T21:04:21.575Z,1.38
2023-03-14T21:06:48.016Z,1.67
2023-03-14T21:09:14.817Z,1.10
2023-03-14T21:11:47.003Z,1.30
2023-03-14T21:14:13.744Z,1.30
2023-03-14T21:16:40.223Z,1.60
2023-03-14T21:19:06.592Z,0.98
2023-03-14T21:21:33.163Z,0.90
2023-03-14T21:24:01.220Z,0.80
2023-03-14T21:26:27.763Z,1.55
2023-03-14T21:28:54.142Z,0.73
2023-03-14T21:31:20.583Z,1.05
2023-03-14T21:33:48.962Z,1.05
2023-03-14T21:36:15.678Z,1.60
2023-03-14T21:38:42.281Z,1.42
2023-03-14T21:41:08.786Z,1.50
2023-03-14T21:43:35.236Z,1.38
2023-03-14T21:46:01.701Z,1.17
2023-03-14T21:48:28.663Z,0.90
2023-03-14T21:50:55.047Z,0.63
2023-03-14T21:53:21.449Z,0.80
2023-03-14T21:55:47.913Z,0.77
2023-03-14T21:58:15.082Z,1.33
2023-03-14T22:00:49.103Z,1.58
2023-03-14T22:03:17.424Z,0.80
2023-03-14T22:05:47.177Z,1.10
2023-03-14T22:08:15.177Z,1.00
2023-03-14T22:10:50.088Z,1.27
2023-03-14T22:13:16.933Z,1.27
2023-03-14T22:15:45.947Z,0.75
2023-03-14T22:18:12.971Z,1.58
2023-03-14T22:20:39.600Z,0.98
2023-03-14T22:23:06.137Z,1.23
2023-03-14T22:25:32.742Z,0.73
2023-03-14T22:27:59.139Z,1.00
2023-03-14T22:30:25.578Z,0.77
2023-03-14T22:32:52.147Z,1.17
2023-03-14T22:35:18.573Z,1.33
2023-03-14T22:37:44.994Z,1.17
2023-03-14T22:40:11.985Z,1.00
2023-03-14T22:42:38.426Z,1.15
2023-03-14T22:45:05.411Z,1.33
2023-03-14T22:47:31.868Z,1.73
2023-03-14T22:49:58.281Z,1.20
2023-03-14T22:52:24.737Z,0.80
2023-03-14T22:54:55.446Z,1.30
2023-03-14T22:57:22.072Z,2.47
2023-03-14T22:59:48.670Z,1.52
2023-03-14T23:02:15.099Z,1.40
2023-03-14T23:04:41.500Z,0.82
2023-03-14T23:07:08.500Z,0.80
2023-03-14T23:09:34.954Z,0.90
2023-03-14T23:12:01.933Z,1.25
2023-03-14T23:14:28.322Z,1.02
2023-03-14T23:16:55.836Z,0.90
2023-03-14T23:19:25.502Z,0.80
2023-03-14T23:21:53.407Z,1.15
2023-03-14T23:24:20.315Z,0.77
2023-03-14T23:26:46.860Z,1.25
2023-03-14T23:29:16.180Z,1.20
2023-03-14T23:31:42.756Z,1.27
2023-03-14T23:34:09.356Z,2.80
2023-03-14T23:36:37.175Z,1.38
2023-03-14T23:39:05.816Z,1.17
2023-03-14T23:41:32.276Z,1.42
2023-03-14T23:43:58.708Z,1.35
2023-03-14T23:46:25.156Z,1.52
2023-03-14T23:48:52.509Z,1.60
2023-03-14T23:51:18.956Z,1.20
2023-03-14T23:53:45.414Z,1.67
2023-03-14T23:56:13.468Z,1.35
2023-03-14T23:58:40.808Z,1.05
